• Join FlightAware (Why Join?)
  • Login
  • US Flag 
01:00PM EDT


 

Airport Tracker/Info


-or-


 

Live Flight TrackerFlight Track Log ✈ N717AN ✈ 05-Dec-2013 ✈ EGLL / LHR - KJFK

Flight Track Log - Related Links

Times and Time Zones

All times are in EST time to prevent confusion due to time zone crossing. See the N717AN flight status page for this flight to view local times or setup timezone preferences in your user account.

Time Position Orientation Groundspeed Altitude Reporting Facility
EST Latitude Longitude Course Direction KTS MPH feet Rate Location/Type
06:07AM 51.4645 -0.5003 152° Southeast 160 184 1,400  Level FlightAware ADS-B (EGTR / ETR)
06:07AM 51.4638 -0.5223 267° West 134 154 2,800 3,900 Climbing FlightAware ADS-B (EGTR / ETR)
06:07AM 51.4637 -0.5247 265° West 133 153 2,900 2,220 Climbing FlightAware ADS-B
06:07AM 51.4629 -0.5379 264° West 132 152 3,400 1,860 Climbing FlightAware ADS-B
06:07AM 51.4627 -0.5444 267° West 138 159 3,500 1,500 Climbing FlightAware ADS-B (EGLF / FAB)
06:07AM 51.4627 -0.5455 269° West 140 161 3,600 660 Climbing FlightAware ADS-B
06:07AM 51.4626 -0.5540 269° West 153 176 3,600 360 Level FlightAware ADS-B
06:08AM 51.4626 -0.5640 270° West 168 193 3,700 900 Climbing FlightAware ADS-B
06:08AM 51.4624 -0.5785 269° West 180 207 3,900 1,560 Climbing FlightAware ADS-B (EGTR / ETR)
06:08AM 51.4623 -0.5840 268° West 181 208 4,100 2,100 Climbing FlightAware ADS-B
06:08AM 51.4622 -0.6069 270° West 192 221 4,600 1,980 Climbing FlightAware ADS-B
06:08AM 51.4619 -0.6261 269° West 199 229 5,100 2,100 Climbing FlightAware ADS-B
06:08AM 51.4616 -0.6311 265° West 202 232 5,200 2,520 Climbing FlightAware ADS-B
06:08AM 51.4609 -0.6377 260° West 206 237 5,400 2,220 Climbing FlightAware ADS-B
06:08AM 51.4598 -0.6435 253° West 211 243 5,500 1,980 Climbing FlightAware ADS-B
06:09AM 51.4567 -0.6592 252° West 213 245 5,900 2,760 Climbing FlightAware ADS-B
06:09AM 51.4558 -0.6669 259° West 210 242 6,200 3,000 Climbing FlightAware ADS-B (EGLF / FAB)
06:09AM 51.4557 -0.6684 264° West 209 241 6,200  Level FlightAware ADS-B
06:09AM 51.4562 -0.6625 82° East 209 241 6,200 3,600 Level FlightAware ADS-B
06:09AM 51.4554 -0.6767 265° West 207 238 6,500 4,200 Climbing FlightAware ADS-B
06:09AM 51.4555 -0.6900 271° West 207 238 6,900 2,460 Climbing FlightAware ADS-B
06:09AM 51.4558 -0.6956 275° West 206 237 7,000 2,400 Climbing FlightAware ADS-B
06:09AM 51.4575 -0.7055 285° West 209 241 7,300 2,160 Climbing FlightAware ADS-B
06:09AM 51.4621 -0.7284 288° West 214 246 7,800 2,280 Climbing FlightAware ADS-B
06:10AM 51.4671 -0.7521 289° West 219 252 8,500 2,460 Climbing FlightAware ADS-B
06:10AM 51.4675 -0.7536 293° West 216 249 8,500 2,760 Level FlightAware ADS-B (EGTR / ETR)
06:10AM 51.4721 -0.7756 289° West 219 252 9,200 3,000 Climbing FlightAware ADS-B
06:10AM 51.4732 -0.7808 289° West 219 252 9,400 3,720 Climbing FlightAware ADS-B (EGLC / LCY)
06:10AM 51.4746 -0.7875 288° West 219 252 9,700 3,000 Climbing FlightAware ADS-B (EGKA / ESH)
06:10AM 51.4772 -0.7993 289° West 219 252 10,000 2,160 Climbing FlightAware ADS-B
06:11AM 51.4871 -0.8475 288° West 229 264 11,100 2,040 Climbing FlightAware ADS-B (EGTR / ETR)
06:11AM 51.4877 -0.8501 290° West 231 266 11,100 1,200 Level FlightAware ADS-B
06:11AM 51.4905 -0.8641 288° West 240 276 11,300 1,140 Climbing FlightAware ADS-B (EGTR / ETR)
06:11AM 51.4947 -0.8865 287° West 256 295 11,500 1,020 Climbing FlightAware ADS-B
06:11AM 51.4982 -0.9057 286° West 267 307 11,700 1,080 Climbing FlightAware ADS-B
06:12AM 51.5057 -0.9468 286° West 295 339 12,100 960 Climbing FlightAware ADS-B
06:12AM 51.5099 -0.9679 288° West 304 350 12,200 1,320 Climbing FlightAware ADS-B
06:12AM 51.5105 -0.9710 288° West 306 352 12,300 1,800 Climbing FlightAware ADS-B
06:12AM 51.5155 -0.9970 287° West 315 362 12,600 1,740 Climbing FlightAware ADS-B (EGHH / BOH)
06:12AM 51.5207 -1.0230 288° West 315 362 13,000 2,640 Climbing FlightAware ADS-B
06:12AM 51.5234 -1.0366 288° West 320 368 13,400 3,000 Climbing FlightAware ADS-B
06:13AM 51.5362 -1.1017 288° West 326 375 14,700 2,640 Climbing FlightAware ADS-B (EGHI / SOU)
06:13AM 51.5364 -1.1028 284° West 326 375 14,700 2,160 Level FlightAware ADS-B
06:13AM 51.5405 -1.1240 287° West 323 372 15,100 3,420 Climbing FlightAware ADS-B
06:13AM 51.5446 -1.1467 286° West 329 379 15,800 3,420 Climbing FlightAware ADS-B
06:13AM 51.5499 -1.1758 286° West 329 379 16,300 3,000 Climbing FlightAware ADS-B
06:13AM 51.5486 -1.1683 106° East 332 382 16,700 2,400 Climbing FlightAware ADS-B (EGKA / ESH)
06:13AM 51.5540 -1.1986 286° West 328 377 16,700 1,740 Level FlightAware ADS-B
06:14AM 51.5596 -1.2299 286° West 335 386 17,200 2,400 Climbing FlightAware ADS-B (EGHH / BOH)
06:14AM 51.5627 -1.2478 285° West 339 390 17,500 2,400 Climbing FlightAware ADS-B
06:14AM 51.5659 -1.2660 286° West 340 391 17,800 2,280 Climbing FlightAware ADS-B
06:14AM 51.5682 -1.2795 286° West 343 395 18,000 2,400 Climbing FlightAware ADS-B (EGLF / FAB)
06:14AM 51.5702 -1.2913 285° West 341 392 18,200 2,640 Climbing FlightAware ADS-B
06:14AM 51.5755 -1.3227 285° West 344 396 18,800 2,520 Climbing FlightAware ADS-B
06:14AM 51.5783 -1.3387 285° West 342 394 19,000 2,400 Climbing FlightAware ADS-B
06:15AM 51.5840 -1.3718 286° West 346 398 19,600 2,340 Climbing FlightAware ADS-B
06:15AM 51.5887 -1.4091 281° West 349 402 20,100 1,980 Climbing FlightAware ADS-B (EGUO)
06:15AM 51.5895 -1.4173 279° West 352 405 20,200 2,100 Climbing FlightAware ADS-B
06:15AM 51.5970 -1.4959 279° West 358 412 21,300 2,160 Climbing FlightAware ADS-B
06:16AM 51.6045 -1.5759 279° West 361 415 22,400 2,160 Climbing FlightAware ADS-B
06:16AM 51.6053 -1.5840 279° West 359 413 22,500 2,220 Climbing FlightAware ADS-B (EGHI / SOU)
06:16AM 51.6065 -1.5967 279° West 360 414 22,700 1,980 Climbing FlightAware ADS-B
06:16AM 51.6118 -1.6462 280° West 364 419 23,300 1,620 Climbing FlightAware ADS-B (EGTR / ETR)
06:16AM 51.6127 -1.6556 279° West 368 423 23,300 960 Level FlightAware ADS-B
06:16AM 51.6126 -1.6545 98° East 370 426 23,400 1,080 Climbing FlightAware ADS-B (EPRZ / RZE)
06:17AM 51.6155 -1.6824 279° West 371 427 23,500 960 Climbing FlightAware ADS-B
06:17AM 51.6168 -1.6953 279° West 374 430 23,600 3,000 Climbing FlightAware ADS-B (EGTR / ETR)
06:17AM 51.6173 -1.7011 279° West 370 426 23,900 1,860 Climbing FlightAware ADS-B (EGDX / DGX)
06:17AM 51.6214 -1.7403 279° West 377 434 24,100 1,800 Climbing FlightAware ADS-B
06:17AM 51.6281 -1.7993 280° West 376 433 24,900 2,100 Climbing FlightAware ADS-B
06:17AM 51.6314 -1.8251 281° West 379 436 25,200 1,440 Climbing FlightAware ADS-B
06:18AM 51.6371 -1.8678 282° West 376 433 25,500 1,200 Climbing FlightAware ADS-B
06:18AM 51.6407 -1.8958 282° West 385 443 25,700 1,200 Climbing FlightAware ADS-B
06:18AM 51.6424 -1.9094 281° West 388 447 25,800 1,500 Climbing FlightAware ADS-B
06:18AM 51.6435 -1.9182 281° West 389 448 25,900 1,560 Climbing FlightAware ADS-B (EGHH / BOH)
06:18AM 51.6471 -1.9514 280° West 393 452 26,200 1,800 Climbing FlightAware ADS-B
06:18AM 51.6496 -1.9753 279° West 392 451 26,500 1,980 Climbing FlightAware ADS-B (EGHH / BOH)
06:18AM 51.6516 -1.9969 279° West 394 453 26,700 1,980 Climbing FlightAware ADS-B
06:19AM 51.6531 -2.0116 279° West 393 452 26,900 1,680 Climbing FlightAware ADS-B
06:19AM 51.6556 -2.0368 279° West 394 453 27,100 1,560 Climbing FlightAware ADS-B (EGTR / ETR)
06:19AM 51.6609 -2.0854 280° West 396 456 27,600 1,740 Climbing FlightAware ADS-B
06:19AM 51.6652 -2.1249 280° West 397 457 28,100 1,860 Climbing FlightAware ADS-B (EGBS)
06:19AM 51.6667 -2.1397 279° West 398 458 28,200 1,620 Climbing FlightAware ADS-B
06:19AM 51.6686 -2.1662 277° West 399 459 28,400 1,500 Climbing FlightAware ADS-B
06:20AM 51.6692 -2.1888 272° West 402 463 28,600 1,200 Climbing FlightAware ADS-B
06:20AM 51.6689 -2.2377 270° West 408 470 28,900 1,020 Climbing FlightAware ADS-B (EGKA / ESH)
06:20AM 51.6685 -2.2744 269° West 414 476 29,100 900 Climbing FlightAware ADS-B
06:20AM 51.6676 -2.2964 266° West 417 480 29,200 960 Climbing FlightAware ADS-B (EGDM)
06:20AM 51.6668 -2.3122 265° West 419 482 29,300 1,080 Climbing FlightAware ADS-B
06:20AM 51.6656 -2.3331 265° West 422 486 29,400 900 Climbing FlightAware ADS-B
06:20AM 51.6642 -2.3537 264° West 424 488 29,500 1,200 Climbing FlightAware ADS-B
06:21AM 51.6606 -2.4068 264° West 427 491 29,900 1,500 Climbing FlightAware ADS-B
06:21AM 51.6573 -2.4534 264° West 428 493 30,300 1,680 Climbing FlightAware ADS-B (EGBS)
06:21AM 51.6559 -2.4743 264° West 427 491 30,500 1,860 Climbing FlightAware ADS-B
06:21AM 51.6541 -2.5048 264° West 426 490 30,800 1,740 Climbing FlightAware ADS-B
06:21AM 51.6520 -2.5487 266° West 424 488 31,200 1,380 Climbing FlightAware ADS-B (EGUO)
06:22AM 51.6498 -2.5994 266° West 425 489 31,500 1,560 Climbing FlightAware ADS-B
06:22AM 51.6497 -2.6025 266° West 425 489 31,900 900 Climbing FlightAware ADS-B
06:22AM 51.6446 -2.7020 265° West 423 487 32,000 120 Climbing FlightAware ADS-B
06:23AM 51.6422 -2.7458 265° West 423 487 32,000  Level FlightAware ADS-B (EGDX / DGX)
06:23AM 51.6386 -2.8177 265° West 423 487 32,000  Level FlightAware ADS-B
06:23AM 51.6374 -2.8393 265° West 423 487 32,000  Level FlightAware ADS-B (EGLF / FAB)
06:23AM 51.6333 -2.9142 265° West 423 487 32,000  Level FlightAware ADS-B
06:24AM 51.6322 -2.9328 265° West 425 489 32,000  Level FlightAware ADS-B
06:24AM 51.6300 -2.9723 265° West 425 489 32,000  Level FlightAware ADS-B (EGHH / BOH)
06:24AM 51.6286 -2.9962 265° West 426 490 32,000  Level FlightAware ADS-B
06:24AM 51.6270 -3.0249 265° West 427 491 32,000  Level FlightAware ADS-B
06:24AM 51.6234 -3.0902 265° West 428 493 32,000  Level FlightAware ADS-B (EGBS)
06:25AM 51.6212 -3.1272 265° West 428 493 32,000  Level FlightAware ADS-B
06:25AM 51.6186 -3.1722 265° West 430 495 32,000  Level FlightAware ADS-B (EGFH / SWS)
06:25AM 51.6175 -3.1906 265° West 429 494 32,000  Level FlightAware ADS-B
06:25AM 51.6151 -3.2310 265° West 430 495 32,000  Level FlightAware ADS-B (EGHH / BOH)
06:25AM 51.6107 -3.3070 265° West 429 494 32,000  Level FlightAware ADS-B
06:26AM 51.6070 -3.3711 265° West 431 496 32,000  Level FlightAware ADS-B (EGFH / SWS)
06:26AM 51.6045 -3.4129 265° West 432 497 32,000  Level FlightAware ADS-B
06:26AM 51.6037 -3.4260 264° West 434 499 32,000  Level FlightAware ADS-B (EGLF / FAB)
06:26AM 51.6002 -3.4831 264° West 434 499 32,000  Level FlightAware ADS-B
06:26AM 51.5996 -3.4936 264° West 434 499 32,000  Level FlightAware ADS-B
06:27AM 51.5963 -3.5478 265° West 433 498 32,000  Level FlightAware ADS-B
06:27AM 51.5925 -3.6106 264° West 432 497 32,000  Level FlightAware ADS-B
06:28AM 51.5875 -3.6909 264° West 430 495 32,000  Level FlightAware ADS-B
06:28AM 51.5815 -3.7877 264° West 429 494 32,000  Level FlightAware ADS-B
06:28AM 51.5791 -3.8260 264° West 429 494 32,000  Level FlightAware ADS-B
06:28AM 51.5769 -3.8605 264° West 431 496 32,000  Level FlightAware ADS-B (EGHH / BOH)
06:29AM 51.5733 -3.9170 264° West 428 493 32,000  Level FlightAware ADS-B
06:29AM 51.5717 -3.9431 264° West 428 493 32,000  Level FlightAware ADS-B
06:29AM 51.5665 -4.0231 264° West 426 490 32,000  Level FlightAware ADS-B (EGFH / SWS)
06:30AM 51.5618 -4.0875 263° West 428 493 32,000  Level FlightAware ADS-B (EGFH / SWS)
06:30AM 51.5542 -4.1419 257° West 436 502 32,000  Level FlightAware ADS-B (LFOM)
06:30AM 51.5468 -4.1788 252° West 443 510 32,000  Level FlightAware ADS-B (EGDX / DGX)
06:31AM 51.5252 -4.2667 248° West 441 507 32,000  Level FlightAware ADS-B (EGHH / BOH)
06:31AM 51.5044 -4.3461 247° West 441 507 32,000  Level FlightAware ADS-B
06:31AM 51.5027 -4.3524 247° West 442 509 32,000  Level FlightAware ADS-B
06:31AM 51.4939 -4.3861 247° West 441 507 32,000  Level FlightAware ADS-B (EGDX / DGX)
06:31AM 51.4813 -4.4339 247° West 442 509 32,000  Level FlightAware ADS-B
06:32AM 51.4560 -4.5308 247° West 443 510 32,000  Level FlightAware ADS-B
06:32AM 51.4530 -4.5428 248° West 444 511 32,000  Level FlightAware ADS-B
06:32AM 51.4462 -4.5690 247° West 444 511 32,000  Level FlightAware ADS-B
06:33AM 51.4254 -4.6490 247° West 449 517 32,000  Level FlightAware ADS-B (EGFH / SWS)
06:33AM 51.3966 -4.7595 247° West 447 514 32,000  Level FlightAware ADS-B
06:34AM 51.3723 -4.8526 247° West 450 518 32,000  Level FlightAware ADS-B (EGFH / SWS)
06:34AM 51.3666 -4.8740 247° West 450 518 32,000  Level FlightAware ADS-B (EGBS)
06:35AM 51.3283 -5.0553 251° West 439 505 32,000  Level FlightAware ADS-B (EGFH / SWS)
06:35AM 51.3276 -5.0614 260° West 438 504 32,000  Level FlightAware ADS-B (EGBS)
06:35AM 51.3159 -5.1773 261° West 437 503 32,000  Level FlightAware ADS-B
06:36AM 51.3054 -5.2830 261° West 438 504 32,000  Level FlightAware ADS-B
06:37AM 51.2961 -5.3765 261° West 438 504 32,000  Level FlightAware ADS-B (EGFH / SWS)
06:37AM 51.2863 -5.4722 261° West 437 503 32,000  Level FlightAware ADS-B
06:38AM 51.2762 -5.5711 261° West 439 505 32,000  Level FlightAware ADS-B (EGFH / SWS)
06:38AM 51.2645 -5.6838 261° West 440 506 32,000  Level FlightAware ADS-B
06:39AM 51.2515 -5.8089 261° West 442 509 32,000  Level FlightAware ADS-B
06:40AM 51.2366 -5.9505 260° West 443 510 32,000  Level FlightAware ADS-B
06:40AM 51.2235 -6.0719 260° West 480 552 32,000  Level FlightAware UK
06:40AM 51.2220 -6.0866 260° West 444 511 32,000  Level FlightAware ADS-B (EGFH / SWS)
06:41AM 51.2060 -6.2354 260° West 445 512 32,000  Level FlightAware ADS-B (EGFH / SWS)
06:42AM 51.1935 -6.3504 260° West 442 509 32,000  Level FlightAware ADS-B
06:42AM 51.1812 -6.4585 260° West 482 555 32,000  Level FlightAware UK
06:42AM 51.1796 -6.4762 260° West 443 510 32,000  Level FlightAware ADS-B
06:42AM 51.1772 -6.4971 260° West 445 512 32,000  Level FlightAware ADS-B
06:43AM 51.1646 -6.6099 260° West 446 513 32,000  Level FlightAware ADS-B
06:44AM 51.1511 -6.7367 260° West 445 512 32,000  Level FlightAware ADS-B
06:44AM 51.1411 -6.8383 261° West 447 514 32,000  Level FlightAware ADS-B
06:45AM 51.1282 -6.9655 261° West 446 513 32,000  Level FlightAware ADS-B
06:46AM 51.1066 -7.1732 261° West 446 513 32,000  Level FlightAware ADS-B
06:46AM 51.0960 -7.2728 260° West 446 513 32,000  Level FlightAware ADS-B
06:47AM 51.0855 -7.3890 260° West 480 552 32,000  Level FlightAware UK
06:47AM 51.0757 -7.4863 261° West 482 555 32,000  Level FlightAware UK
06:48AM 51.0721 -7.4966 261° West 449 517 32,000 -120 Level FlightAware ADS-B
06:48AM 51.0537 -7.6816 261° West 480 552 31,900 -120 Descending FlightAware UK
06:49AM 51.0437 -7.7794 261° West 480 552 31,900  Level FlightAware UK
06:49AM 51.0328 -7.8774 260° West 482 555 31,900  Level FlightAware UK
06:50AM 51.0217 -7.9756 260° West 482 555 31,900 60 Level FlightAware UK
06:50AM 51.0098 -8.0735 259° West 484 557 32,000  Climbing FlightAware UK
06:51AM 50.9989 -8.1712 260° West 480 552 31,900 -120 Descending FlightAware UK
06:52AM 50.9844 -8.2873 259° West 482 555 31,900 60 Level FlightAware UK
06:52AM 50.9739 -8.3846 260° West 480 552 32,000 60 Climbing FlightAware UK
06:53AM 50.9630 -8.4818 260° West 480 552 32,000 -120 Level FlightAware UK
06:53AM 50.9520 -8.5793 260° West 480 552 31,900  Descending FlightAware UK
06:54AM 50.9409 -8.6770 260° West 480 552 32,000  Climbing FlightAware UK
06:54AM 50.9290 -8.7749 259° West 482 555 31,900 -120 Descending FlightAware UK
06:55AM 50.9179 -8.8728 260° West 482 555 31,900  Level FlightAware UK
06:55AM 50.9061 -8.9706 259° West 482 555 31,900  Level FlightAware UK
06:57AM 50.9449 -9.2370 283° West  Level Estimated
07:04AM 51.1218 -10.5147 283° West  Level Estimated
07:05AM 51.1459 -10.6980 282° West  Level Estimated
07:06AM 51.1698 -10.8815 282° West  Level Estimated
07:07AM 51.1933 -11.0651 282° West  Level Estimated
07:08AM 51.2166 -11.2490 281° West  Level Estimated
07:09AM 51.2396 -11.4331 281° West  Level Estimated
07:10AM 51.2623 -11.6173 281° West  Level Estimated
07:11AM 51.2847 -11.8017 281° West  Level Estimated
07:12AM 51.3068 -11.9863 281° West  Level Estimated
07:13AM 51.3286 -12.1711 281° West  Level Estimated
07:14AM 51.3501 -12.3561 281° West  Level Estimated
07:15AM 51.3714 -12.5412 280° West  Level Estimated
07:16AM 51.3923 -12.7265 280° West  Level Estimated
07:17AM 51.4130 -12.9119 280° West  Level Estimated
07:18AM 51.4333 -13.0976 280° West  Level Estimated
07:19AM 51.4534 -13.2833 280° West  Level Estimated
07:20AM 51.4732 -13.4693 280° West  Level Estimated
07:21AM 51.4926 -13.6554 280° West  Level Estimated
07:22AM 51.5118 -13.8417 279° West  Level Estimated
07:23AM 51.5307 -14.0281 279° West  Level Estimated
07:24AM 51.5493 -14.2147 279° West  Level Estimated
07:25AM 51.5676 -14.4014 279° West  Level Estimated
07:26AM 51.5856 -14.5883 279° West  Level Estimated
07:27AM 51.6033 -14.7753 279° West  Level Estimated
07:28AM 51.6207 -14.9625 279° West  Level Estimated
07:29AM 51.6378 -15.1498 278° West  Level Estimated
07:30AM 51.6546 -15.3373 278° West  Level Estimated
07:31AM 51.6712 -15.5249 278° West  Level Estimated
07:32AM 51.6874 -15.7126 278° West  Level Estimated
07:33AM 51.7033 -15.9005 278° West  Level Estimated
07:34AM 51.7199 -16.1010 278° West  Level Estimated
07:35AM 51.7362 -16.3016 278° West  Level Estimated
07:36AM 51.7522 -16.5025 277° West  Level Estimated
07:37AM 51.7678 -16.7034 277° West  Level Estimated
07:38AM 51.7831 -16.9045 277° West  Level Estimated
07:39AM 51.7980 -17.1057 277° West  Level Estimated
07:40AM 51.8126 -17.3071 277° West  Level Estimated
07:41AM 51.8268 -17.5086 277° West  Level Estimated
07:42AM 51.8407 -17.7102 276° West  Level Estimated
07:43AM 51.8543 -17.9119 276° West  Level Estimated
07:44AM 51.8675 -18.1137 276° West  Level Estimated
07:45AM 51.8798 -18.3078 276° West  Level Estimated
07:46AM 51.8919 -18.5020 276° West  Level Estimated
07:47AM 51.9036 -18.6962 276° West  Level Estimated
07:48AM 51.9150 -18.8906 276° West  Level Estimated
07:49AM 51.9261 -19.0851 275° West  Level Estimated
07:50AM 51.9369 -19.2796 275° West  Level Estimated
07:50AM 50.0000 -20.0000 274° West 491 565 33,000  Level ETMS Enhanced Traffic Management System
07:51AM 51.9474 -19.4747 275° West  Level Estimated
07:52AM 51.9575 -19.6699 275° West  Level Estimated
07:53AM 51.9673 -19.8652 275° West  Level Estimated
07:54AM 51.9768 -20.0606 275° West  Level Estimated
07:55AM 51.9860 -20.2560 274° West  Level Estimated
07:56AM 50.0479 -21.2741 273° West 491 565 33,000  Level FlightAware Transoceanic
07:57AM 50.0545 -21.4867 273° West 491 565 33,000  Level FlightAware Transoceanic
07:58AM 50.0607 -21.6993 273° West 491 565 33,000  Level FlightAware Transoceanic
07:59AM 50.0666 -21.9120 272° West 491 565 33,000  Level FlightAware Transoceanic
08:00AM 50.0720 -22.1248 272° West 491 565 33,000  Level FlightAware Transoceanic
08:01AM 50.0771 -22.3376 272° West 491 565 33,000  Level FlightAware Transoceanic
08:02AM 50.0817 -22.5504 272° West 491 565 33,000  Level FlightAware Transoceanic
08:03AM 50.0860 -22.7633 272° West 491 565 33,000  Level FlightAware Transoceanic
08:04AM 50.0899 -22.9762 272° West 491 565 33,000  Level FlightAware Transoceanic
08:05AM 50.0934 -23.1891 271° West 491 565 33,000  Level FlightAware Transoceanic
08:06AM 50.0966 -23.4021 271° West 491 565 33,000  Level FlightAware Transoceanic
08:07AM 50.0993 -23.6151 271° West 491 565 33,000  Level FlightAware Transoceanic
08:08AM 50.1016 -23.8281 271° West 491 565 33,000  Level FlightAware Transoceanic
08:09AM 50.1036 -24.0412 271° West 491 565 33,000  Level FlightAware Transoceanic
08:10AM 50.1051 -24.2542 271° West 491 565 33,000  Level FlightAware Transoceanic
08:11AM 50.1063 -24.4673 270° West 491 565 33,000  Level FlightAware Transoceanic
08:12AM 50.1071 -24.6804 270° West 491 565 33,000  Level FlightAware Transoceanic
08:13AM 50.1075 -24.8935 270° West 491 565 33,000  Level FlightAware Transoceanic
08:14AM 50.1075 -25.1065 270° West 491 565 33,000  Level FlightAware Transoceanic
08:15AM 50.1071 -25.3196 270° West 491 565 33,000  Level FlightAware Transoceanic
08:16AM 50.1063 -25.5327 270° West 491 565 33,000  Level FlightAware Transoceanic
08:17AM 50.1051 -25.7458 269° West 491 565 33,000  Level FlightAware Transoceanic
08:18AM 50.1036 -25.9588 269° West 491 565 33,000  Level FlightAware Transoceanic
08:19AM 50.1016 -26.1719 269° West 491 565 33,000  Level FlightAware Transoceanic
08:20AM 50.0993 -26.3849 269° West 491 565 33,000  Level FlightAware Transoceanic
08:21AM 50.0966 -26.5979 269° West 491 565 33,000  Level FlightAware Transoceanic
08:22AM 50.0934 -26.8109 269° West 491 565 33,000  Level FlightAware Transoceanic
08:23AM 50.0899 -27.0238 268° West 491 565 33,000  Level FlightAware Transoceanic
08:24AM 50.0860 -27.2367 268° West 491 565 33,000  Level FlightAware Transoceanic
08:25AM 50.0817 -27.4496 268° West 491 565 33,000  Level FlightAware Transoceanic
08:26AM 50.0771 -27.6624 268° West 491 565 33,000  Level FlightAware Transoceanic
08:27AM 50.0720 -27.8752 268° West 491 565 33,000  Level FlightAware Transoceanic
08:28AM 50.0666 -28.0880 268° West 491 565 33,000  Level FlightAware Transoceanic
08:29AM 50.0607 -28.3007 267° West 491 565 33,000  Level FlightAware Transoceanic
08:30AM 50.0545 -28.5133 267° West 491 565 33,000  Level FlightAware Transoceanic
08:31AM 50.0479 -28.7259 267° West 491 565 33,000  Level FlightAware Transoceanic
08:32AM 50.0409 -28.9384 267° West 491 565 33,000  Level FlightAware Transoceanic
08:33AM 50.0335 -29.1509 267° West 491 565 33,000  Level FlightAware Transoceanic
08:34AM 50.0257 -29.3633 267° West 491 565 33,000  Level FlightAware Transoceanic
08:35AM 50.0175 -29.5756 266° West 491 565 33,000  Level FlightAware Transoceanic
08:36AM 50.0089 -29.7878 266° West 491 565 33,000  Level FlightAware Transoceanic
08:37AM 50.0011 -29.9753 266° West  Level FlightAware Approximate
08:38AM 49.9929 -30.1622 266° West  Level FlightAware Approximate
08:39AM 50.0058 -30.1371 274° West  Level FlightAware Approximate
08:40AM 50.0135 -30.3241 274° West  Level FlightAware Approximate
08:41AM 50.0208 -30.5112 274° West  Level FlightAware Approximate
08:42AM 50.0279 -30.6984 273° West  Level FlightAware Approximate
08:43AM 50.0346 -30.8856 273° West  Level FlightAware Approximate
08:44AM 50.0411 -31.0728 273° West  Level FlightAware Approximate
08:45AM 50.0472 -31.2602 273° West  Level FlightAware Approximate
08:46AM 50.0531 -31.4475 273° West  Level FlightAware Approximate
08:47AM 50.0587 -31.6349 273° West  Level FlightAware Approximate
08:48AM 50.0639 -31.8223 273° West  Level FlightAware Approximate
08:49AM 50.0689 -32.0098 272° West  Level FlightAware Approximate
08:50AM 50.0735 -32.1973 272° West  Level FlightAware Approximate
08:51AM 50.0778 -32.3849 272° West  Level FlightAware Approximate
08:52AM 50.0819 -32.5725 272° West  Level FlightAware Approximate
08:53AM 50.0856 -32.7601 272° West  Level FlightAware Approximate
08:54AM 50.0891 -32.9478 272° West  Level FlightAware Approximate
08:55AM 50.0922 -33.1354 272° West  Level FlightAware Approximate
08:56AM 50.0950 -33.3231 271° West  Level FlightAware Approximate
08:57AM 50.0975 -33.5109 271° West  Level FlightAware Approximate
08:58AM 50.0998 -33.6986 271° West  Level FlightAware Approximate
08:59AM 50.1017 -33.8863 271° West  Level FlightAware Approximate
09:00AM 50.1033 -34.0741 271° West  Level FlightAware Approximate
09:01AM 50.1046 -34.2619 271° West  Level FlightAware Approximate
09:02AM 50.1057 -34.4497 271° West  Level FlightAware Approximate
09:03AM 50.1064 -34.6375 270° West  Level FlightAware Approximate
09:04AM 50.1068 -34.8253 270° West  Level FlightAware Approximate
09:05AM 50.1069 -35.0131 270° West  Level FlightAware Approximate
09:06AM 50.1067 -35.2009 270° West  Level FlightAware Approximate
09:07AM 50.1062 -35.3887 270° West  Level FlightAware Approximate
09:08AM 50.1054 -35.5765 270° West  Level FlightAware Approximate
09:09AM 50.1043 -35.7643 270° West  Level FlightAware Approximate
09:10AM 50.1029 -35.9520 269° West  Level FlightAware Approximate
09:11AM 50.1012 -36.1398 269° West  Level FlightAware Approximate
09:12AM 50.0992 -36.3275 269° West  Level FlightAware Approximate
09:13AM 50.0969 -36.5152 269° West  Level FlightAware Approximate
09:14AM 50.0944 -36.7029 269° West  Level FlightAware Approximate
09:15AM 50.0915 -36.8906 269° West  Level FlightAware Approximate
09:16AM 50.0883 -37.0783 269° West  Level FlightAware Approximate
09:17AM 50.0849 -37.2659 268° West  Level FlightAware Approximate
09:18AM 50.0811 -37.4536 268° West  Level FlightAware Approximate
09:19AM 50.0770 -37.6411 268° West  Level FlightAware Approximate
09:20AM 50.0727 -37.8287 268° West  Level FlightAware Approximate
09:21AM 50.0680 -38.0162 268° West  Level FlightAware Approximate
09:22AM 50.0630 -38.2037 268° West  Level FlightAware Approximate
09:23AM 50.0578 -38.3911 268° West  Level FlightAware Approximate
09:24AM 50.0522 -38.5785 267° West  Level FlightAware Approximate
09:25AM 50.0463 -38.7659 267° West  Level FlightAware Approximate
09:26AM 50.0401 -38.9532 267° West  Level FlightAware Approximate
09:27AM 50.0336 -39.1404 267° West  Level FlightAware Approximate
09:28AM 50.0269 -39.3276 267° West  Level FlightAware Approximate
09:29AM 50.0197 -39.5161 267° West  Level FlightAware Approximate
09:30AM 50.0123 -39.7045 267° West  Level FlightAware Approximate
09:31AM 50.0045 -39.8929 266° West  Level FlightAware Approximate
09:32AM 49.9954 -40.0811 265° West  Level FlightAware Approximate
09:33AM 49.9845 -40.2690 265° West  Level FlightAware Approximate
09:34AM 49.9733 -40.4568 265° West  Level FlightAware Approximate
09:35AM 49.9618 -40.6445 265° West  Level FlightAware Approximate
09:36AM 49.9501 -40.8322 264° West  Level FlightAware Approximate
09:37AM 49.9380 -41.0197 264° West  Level FlightAware Approximate
09:38AM 49.9255 -41.2072 264° West  Level FlightAware Approximate
09:39AM 49.9128 -41.3945 264° West  Level FlightAware Approximate
09:40AM 49.8998 -41.5818 264° West  Level FlightAware Approximate
09:41AM 49.8866 -41.7690 264° West  Level FlightAware Approximate
09:42AM 49.8729 -41.9560 264° West  Level FlightAware Approximate
09:43AM 49.8590 -42.1430 263° West  Level FlightAware Approximate
09:44AM 49.8448 -42.3298 263° West  Level FlightAware Approximate
09:45AM 49.8303 -42.5165 263° West  Level FlightAware Approximate
09:46AM 49.8155 -42.7031 263° West  Level FlightAware Approximate
09:47AM 49.8004 -42.8896 263° West  Level FlightAware Approximate
09:48AM 49.7850 -43.0760 263° West  Level FlightAware Approximate
09:49AM 49.7693 -43.2623 263° West  Level FlightAware Approximate
09:50AM 49.7533 -43.4484 262° West  Level FlightAware Approximate
09:51AM 49.7370 -43.6344 262° West  Level FlightAware Approximate
09:52AM 49.7204 -43.8203 262° West  Level FlightAware Approximate
09:53AM 49.7035 -44.0061 262° West  Level FlightAware Approximate
09:54AM 49.6863 -44.1917 262° West  Level FlightAware Approximate
09:55AM 49.6688 -44.3772 262° West  Level FlightAware Approximate
09:56AM 49.6510 -44.5626 262° West  Level FlightAware Approximate
09:57AM 49.6330 -44.7478 261° West  Level FlightAware Approximate
09:58AM 49.6146 -44.9329 261° West  Level FlightAware Approximate
09:59AM 49.5959 -45.1179 261° West  Level FlightAware Approximate
10:00AM 49.5770 -45.3027 261° West  Level FlightAware Approximate
10:01AM 49.5577 -45.4873 261° West  Level FlightAware Approximate
10:02AM 49.5382 -45.6718 261° West  Level FlightAware Approximate
10:03AM 49.5183 -45.8562 261° West  Level FlightAware Approximate
10:04AM 49.4982 -46.0404 261° West  Level FlightAware Approximate
10:05AM 49.4777 -46.2245 260° West  Level FlightAware Approximate
10:06AM 49.4570 -46.4084 260° West  Level FlightAware Approximate
10:07AM 49.4360 -46.5921 260° West  Level FlightAware Approximate
10:08AM 49.4147 -46.7757 260° West  Level FlightAware Approximate
10:09AM 49.3931 -46.9591 260° West  Level FlightAware Approximate
10:10AM 49.3712 -47.1424 260° West  Level FlightAware Approximate
10:11AM 49.3490 -47.3255 260° West  Level FlightAware Approximate
10:12AM 49.3266 -47.5085 259° West  Level FlightAware Approximate
10:13AM 49.3038 -47.6912 259° West  Level FlightAware Approximate
10:14AM 49.2808 -47.8738 259° West  Level FlightAware Approximate
10:15AM 49.2575 -48.0563 259° West  Level FlightAware Approximate
10:16AM 49.2339 -48.2385 259° West  Level FlightAware Approximate
10:17AM 49.2100 -48.4206 259° West  Level FlightAware Approximate
10:18AM 49.1858 -48.6025 259° West  Level FlightAware Approximate
10:19AM 49.1613 -48.7842 258° West  Level FlightAware Approximate
10:20AM 49.1365 -48.9658 258° West  Level FlightAware Approximate
10:21AM 49.1115 -49.1471 258° West  Level FlightAware Approximate
10:22AM 49.0862 -49.3283 258° West  Level FlightAware Approximate
10:23AM 49.0606 -49.5093 258° West  Level FlightAware Approximate
10:23AM 49.0000 -49.8833 251° West 430 495 34,000  Level Gander Center
10:24AM 49.0373 -49.6909 260° West  Level FlightAware Approximate
10:24AM 48.9667 -50.0500 253° West 430 495 34,000  Level Gander Center
10:25AM 49.0146 -49.8799 260° West  Level FlightAware Approximate
10:25AM 48.9333 -50.2167 253° West 430 495 34,000  Level Gander Center
10:26AM 48.9848 -50.0665 251° West  Level FlightAware Approximate
10:26AM 48.8833 -50.4000 248° West 430 495 34,000  Level Gander Center
10:27AM 48.9432 -50.2477 251° West  Level FlightAware Approximate
10:27AM 48.8500 -50.5667 253° West 440 506 34,000  Level Gander Center
10:28AM 48.9013 -50.4285 251° West  Level FlightAware Approximate
10:28AM 48.8000 -50.7500 248° West 440 506 34,000  Level Gander Center
10:29AM 48.7667 -50.9167 253° West 440 506 34,000  Level Gander Center
10:30AM 48.7333 -51.1000 255° West 440 506 34,000  Level Gander Center
10:31AM 48.6833 -51.2833 248° West 450 518 34,000  Level Gander Center
10:32AM 48.6333 -51.4500 246° West 450 518 34,000  Level Gander Center
10:33AM 48.6000 -51.6333 255° West 450 518 34,000  Level Gander Center
10:34AM 48.5500 -51.8167 248° West 450 518 34,000  Level Gander Center
10:35AM 48.5167 -52.0000 255° West 450 518 34,000  Level Gander Center
10:36AM 48.4667 -52.1667 246° West 450 518 34,000  Level Gander Center
10:37AM 48.4333 -52.3500 255° West 450 518 34,000  Level Gander Center
10:38AM 48.4000 -52.5333 255° West 450 518 34,000  Level Gander Center
10:39AM 48.3333 -52.7000 239° Southwest 450 518 34,000  Level Gander Center
10:40AM 48.3000 -52.8833 255° West 460 529 34,000  Level Gander Center
10:41AM 48.2500 -53.0667 248° West 460 529 34,000 360 Level Gander Center
10:42AM 48.2167 -53.2500 255° West 460 529 34,800 960 Climbing Gander Center
10:43AM 48.1500 -53.4167 239° Southwest 460 529 36,000 600 Climbing Gander Center
10:44AM 48.1167 -53.5833 253° West 460 529 36,000  Level Gander Center
10:45AM 48.0667 -53.7667 248° West 450 518 36,000  Level Gander Center
10:46AM 48.0333 -53.9500 255° West 450 518 36,000  Level Gander Center
10:47AM 47.9667 -54.1333 242° Southwest 460 529 36,000  Level Gander Center
10:48AM 47.9333 -54.3000 253° West 460 529 36,000  Level Gander Center
10:49AM 47.8833 -54.4667 246° West 460 529 36,000  Level Gander Center
10:50AM 47.8333 -54.6500 248° West 450 518 36,000  Level Gander Center
10:51AM 47.8000 -54.8333 255° West 450 518 36,000  Level Gander Center
10:52AM 47.7333 -55.0000 239° Southwest 450 518 36,000  Level Gander Center
10:53AM 47.7000 -55.1667 254° West 450 518 36,000  Level Gander Center
10:54AM 47.6500 -55.3333 246° West 450 518 36,000  Level Gander Center
10:55AM 47.6000 -55.5000 246° West 450 518 36,000  Level Gander Center
10:56AM 47.5500 -55.6833 248° West 450 518 36,000  Level Gander Center
10:57AM 47.5000 -55.8667 248° West 460 529 36,000  Level Gander Center
10:58AM 47.4500 -56.0500 248° West 460 529 36,000  Level Gander Center
10:59AM 47.4000 -56.2000 244° Southwest 460 529 36,000  Level Gander Center
11:00AM 47.3500 -56.3667 246° West 460 529 36,000  Level Gander Center
11:01AM 47.3000 -56.5500 248° West 460 529 36,000  Level Gander Center
11:02AM 47.2500 -56.7333 248° West 460 529 36,000  Level Gander Center
11:03AM 47.2167 -56.8833 252° West 460 529 36,000  Level Gander Center
11:04AM 47.1500 -57.0500 240° Southwest 460 529 36,000  Level Gander Center
11:05AM 47.1000 -57.2333 248° West 460 529 36,000  Level Gander Center
11:06AM 47.0500 -57.4167 248° West 450 518 36,000  Level Gander Center
11:07AM 47.0000 -57.5833 246° West 460 529 36,000  Level Gander Center
11:08AM 46.9500 -57.7333 244° Southwest 450 518 36,000  Level Gander Center
11:09AM 46.9000 -57.9167 248° West 460 529 36,000  Level Gander Center
11:10AM 46.8333 -58.0833 240° Southwest 460 529 36,000  Level Gander Center
11:11AM 46.7833 -58.2667 248° West 460 529 36,000  Level Gander Center
11:12AM 46.7333 -58.4333 246° West 460 529 36,000  Level Gander Center
11:13AM 46.6833 -58.6000 246° West 460 529 36,000  Level Gander Center
11:14AM 46.6333 -58.7500 244° Southwest 450 518 36,000  Level Gander Center
11:15AM 46.5667 -58.9333 242° Southwest 450 518 36,000  Level Gander Center
11:16AM 46.5167 -59.0667 241° Southwest 450 518 36,000  Level Gander Center
11:17AM 46.4833 -59.2500 255° West 450 518 36,000  Level Gander Center
11:18AM 46.4167 -59.4167 240° Southwest 450 518 36,000  Level Gander Center
11:19AM 46.3667 -59.5833 247° West 450 518 36,000  Level Gander Center
11:20AM 46.3167 -59.7333 244° Southwest 460 529 36,000  Level Gander Center
11:21AM 46.2500 -59.9333 244° Southwest 460 529 36,000  Level Gander Center
11:22AM 46.2000 -60.0833 244° Southwest 450 518 36,000  Level Gander Center
11:23AM 46.1333 -60.2500 240° Southwest 450 518 36,000  Level Gander Center
11:24AM 46.0833 -60.4000 244° Southwest 430 495 36,000  Level Gander Center
11:25AM 46.0333 -60.5667 247° West 440 506 36,000  Level Gander Center
11:26AM 45.9833 -60.7000 242° Southwest 440 506 36,000  Level Gander Center
11:27AM 45.9333 -60.8667 247° West 440 506 36,000  Level Gander Center
11:28AM 45.8833 -61.0167 244° Southwest 440 506 36,000  Level Gander Center
11:29AM 45.8167 -61.1833 240° Southwest 430 495 36,000  Level Gander Center
11:30AM 45.7667 -61.3333 245° Southwest 430 495 36,000  Level Gander Center
11:31AM 45.7167 -61.4667 242° Southwest 440 506 36,000  Level Gander Center
11:32AM 45.6667 -61.6333 247° West 440 506 36,000  Level Gander Center
11:33AM 45.6167 -61.8000 247° West 440 506 36,000  Level Gander Center
11:34AM 45.5333 -61.9500 232° Southwest 440 506 36,000  Level Gander Center
11:40AM 45.2020 -62.9402 232° Southwest 439 505 36,000  Level FlightAware ADS-B (CYQI)
11:41AM 45.1573 -63.0593 242° Southwest 438 504 36,000  Level FlightAware ADS-B (CYQI)
11:42AM 45.1027 -63.2038 242° Southwest 436 502 36,000  Level FlightAware ADS-B (CYQI)
11:43AM 45.0426 -63.3624 242° Southwest 435 501 36,000  Level FlightAware ADS-B (CYQI)
11:44AM 44.9967 -63.4831 242° Southwest 435 501 36,000  Level FlightAware ADS-B (CYQI)
11:45AM 44.9383 -63.6352 242° Southwest 435 501 36,000  Level FlightAware ADS-B (CYQI)
11:46AM 44.8867 -63.7693 242° Southwest 435 501 36,000  Level FlightAware ADS-B (CYQI)
11:46AM 44.8563 -63.8477 241° Southwest 435 501 36,000  Level FlightAware ADS-B (CYQI)
11:47AM 44.8107 -63.9654 241° Southwest 436 502 36,000  Level FlightAware ADS-B (CYQI)
11:47AM 44.7714 -64.0662 241° Southwest 438 504 36,000  Level FlightAware ADS-B (CYQI)
11:48AM 44.7324 -64.1658 241° Southwest 438 504 36,000  Level FlightAware ADS-B (CYQI)
11:49AM 44.6923 -64.2681 241° Southwest 440 506 36,000  Level FlightAware ADS-B (CYQI)
11:49AM 44.6638 -64.3405 241° Southwest 440 506 36,000  Level FlightAware ADS-B (CYQI)
11:50AM 44.6147 -64.4648 241° Southwest 439 505 36,000  Level FlightAware ADS-B (CYQI)
11:51AM 44.5771 -64.5597 241° Southwest 437 503 36,000  Level FlightAware ADS-B (CYQI)
11:51AM 44.5364 -64.6618 241° Southwest 435 501 36,000  Level FlightAware ADS-B (CYQI)
11:52AM 44.5024 -64.7471 241° Southwest 434 499 36,000  Level FlightAware ADS-B (CYQI)
11:53AM 44.4595 -64.8541 241° Southwest 433 498 36,000  Level FlightAware ADS-B (CYQI)
11:53AM 44.4181 -64.9571 241° Southwest 433 498 36,000  Level FlightAware ADS-B (CYQI)
11:54AM 44.3790 -65.0541 241° Southwest 433 498 36,000  Level FlightAware ADS-B (CYQI)
11:55AM 44.3409 -65.1482 240° Southwest 434 499 36,000  Level FlightAware ADS-B (CYQI)
11:55AM 44.3008 -65.2467 240° Southwest 433 498 36,000  Level FlightAware ADS-B (CYQI)
11:56AM 44.2662 -65.3316 240° Southwest 430 495 36,000  Level FlightAware ADS-B (CYQI)
11:57AM 44.2246 -65.4332 240° Southwest 427 491 36,000  Level FlightAware ADS-B (CYQI)
11:57AM 44.1856 -65.5283 240° Southwest 425 489 36,000  Level FlightAware ADS-B (CYQI)
11:58AM 44.1458 -65.6251 240° Southwest 424 488 36,000  Level FlightAware ADS-B (CYQI)
11:59AM 44.1055 -65.7224 240° Southwest 423 487 36,000  Level FlightAware ADS-B (CYQI)
11:59AM 44.0692 -65.8102 240° Southwest 421 484 36,000  Level FlightAware ADS-B (CYQI)
12:01PM 44.0042 -65.9662 240° Southwest 422 486 36,000  Level FlightAware ADS-B (CYQI)
12:01PM 43.9637 -66.0630 240° Southwest 422 486 36,000  Level FlightAware ADS-B (CYQI)
12:02PM 43.9266 -66.1516 240° Southwest 423 487 36,000  Level FlightAware ADS-B (CYQI)
12:03PM 43.8901 -66.2379 240° Southwest 424 488 36,000  Level FlightAware ADS-B (CYQI)
12:03PM 43.8374 -66.3632 240° Southwest 424 488 36,000  Level FlightAware ADS-B (CYQI)
12:04PM 43.7967 -66.4591 240° Southwest 424 488 36,000  Level FlightAware ADS-B (CYQI)
12:05PM 43.7561 -66.5545 240° Southwest 423 487 36,000  Level FlightAware ADS-B (CYQI)
12:05PM 43.7171 -66.6458 239° Southwest 425 489 36,000  Level FlightAware ADS-B (CYQI)
12:06PM 43.6803 -66.7316 239° Southwest 425 489 36,000  Level FlightAware ADS-B (CYQI)
12:07PM 43.6596 -66.7801 239° Southwest 425 489 36,000  Level FlightAware ADS-B (CYQI)
12:07PM 43.5985 -66.9219 239° Southwest 426 490 36,000  Level FlightAware ADS-B (CYQI)
12:08PM 43.5574 -67.0170 239° Southwest 425 489 36,000  Level FlightAware ADS-B (CYQI)
12:09PM 43.5226 -67.1002 240° Southwest 425 489 36,000  Level FlightAware ADS-B (CYQI)
12:09PM 43.4751 -67.2140 240° Southwest 426 490 36,000  Level FlightAware ADS-B (CYQI)
12:10PM 43.4391 -67.2992 240° Southwest 428 493 36,000  Level FlightAware ADS-B (CYQI)
12:11PM 43.3994 -67.3928 240° Southwest 428 493 36,000  Level FlightAware ADS-B (CYQI)
12:11PM 43.3603 -67.4847 240° Southwest 428 493 36,000  Level FlightAware ADS-B (CYQI)
12:12PM 43.3181 -67.5838 240° Southwest 428 493 36,000  Level FlightAware ADS-B (CYQI)
12:13PM 43.2793 -67.6744 240° Southwest 429 494 36,000  Level FlightAware ADS-B (CYQI)
12:13PM 43.2373 -67.7724 240° Southwest 429 494 36,000  Level FlightAware ADS-B (CYQI)
12:14PM 43.1959 -67.8688 239° Southwest 429 494 36,000 -120 Level FlightAware ADS-B (CYQI)
12:15PM 43.1559 -67.9612 239° Southwest 426 490 35,900 -720 Descending FlightAware ADS-B (CYQI)
12:15PM 43.1162 -68.0529 239° Southwest 426 490 35,100 -720 Descending FlightAware ADS-B (CYQI)
12:16PM 43.0798 -68.1370 239° Southwest 427 491 35,000 -120 Descending FlightAware ADS-B (CYQI)
12:17PM 43.0379 -68.2329 239° Southwest 426 490 35,000  Level FlightAware ADS-B (CYQI)
12:17PM 42.9960 -68.3290 239° Southwest 426 490 35,000  Level FlightAware ADS-B (CYQI)
12:18PM 42.9960 -68.3290 239° Southwest 425 489 35,000  Level FlightAware ADS-B (CYQI)
12:19PM 42.9017 -68.5435 239° Southwest 427 491 35,000  Level FlightAware ADS-B (KBOS)
12:20PM 42.8520 -68.6558 239° Southwest 426 490 35,000  Level FlightAware ADS-B (KBOS)
12:21PM 42.8078 -68.7554 239° Southwest 425 489 35,000  Level FlightAware ADS-B (KBOS)
12:21PM 42.8078 -68.7554 238° Southwest 425 489 35,000  Level FlightAware ADS-B (CYQI)
12:22PM 42.7464 -68.8934 239° Southwest 423 487 35,000  Level FlightAware ADS-B (KBOS)
12:24PM 42.5687 -69.2887 239° Southwest 418 481 35,000  Level FlightAware ADS-B
12:25PM 42.5458 -69.3394 238° Southwest 418 481 35,000  Level FlightAware ADS-B
12:26PM 42.5007 -69.4387 238° Southwest 417 480 35,000  Level FlightAware ADS-B
12:26PM 42.4627 -69.5219 238° Southwest 409 471 35,000  Level FlightAware ADS-B
12:27PM 42.4379 -69.5763 238° Southwest 407 468 35,000  Level FlightAware ADS-B
12:27PM 42.4021 -69.6548 238° Southwest 407 468 35,000  Level FlightAware ADS-B
12:28PM 42.3596 -69.7475 238° Southwest 408 470 35,000  Level FlightAware ADS-B
12:29PM 42.3188 -69.8363 238° Southwest 408 470 35,000  Level FlightAware ADS-B
12:29PM 42.2898 -69.8990 238° Southwest 412 474 35,000  Level FlightAware ADS-B (KBOS)
12:30PM 42.2441 -69.9954 237° Southwest 414 476 35,000  Level FlightAware ADS-B (KBOS)
12:30PM 42.2069 -70.0715 237° Southwest 413 475 35,000  Level FlightAware ADS-B
12:31PM 42.1740 -70.1392 237° Southwest 412 474 35,000  Level FlightAware ADS-B
12:32PM 42.1391 -70.2109 237° Southwest 411 473 35,000  Level FlightAware ADS-B (KBOS)
12:32PM 42.1058 -70.2793 237° Southwest 409 471 35,000  Level FlightAware ADS-B (KBOS)
12:33PM 42.0699 -70.3532 237° Southwest 407 468 35,000  Level FlightAware ADS-B
12:33PM 42.0374 -70.4197 237° Southwest 407 468 35,000  Level FlightAware ADS-B
12:34PM 42.0043 -70.4871 237° Southwest 407 468 35,000  Level FlightAware ADS-B
12:34PM 41.9727 -70.5513 236° Southwest 406 467 35,000 -360 Level FlightAware ADS-B (KBOS)
12:35PM 41.9255 -70.6469 236° Southwest 406 467 34,600 -1,200 Descending FlightAware ADS-B
12:36PM 41.8854 -70.7283 237° Southwest 414 476 33,400 -1,740 Descending FlightAware ADS-B
12:36PM 41.8485 -70.8027 236° Southwest 421 484 32,500 -1,620 Descending FlightAware ADS-B
12:36PM 41.8439 -70.8118 236° Southwest 421 484 32,000 -1,440 Descending FlightAware ADS-B (KBOS)
12:37PM 41.7942 -70.9118 236° Southwest 428 493 31,300 -900 Descending FlightAware ADS-B (KOWD)
12:38PM 41.7514 -70.9979 236° Southwest 430 495 31,000 -360 Descending FlightAware ADS-B (KOWD)
12:38PM 41.7443 -71.0149 241° Southwest 416 479 31,000  Level FlightAware ADS-B (KOWD)
12:39PM 41.7141 -71.1355 251° West 413 475 31,000  Level FlightAware ADS-B
12:39PM 41.6987 -71.2039 253° West 414 476 31,000  Level FlightAware ADS-B
12:40PM 41.6760 -71.2947 251° West 415 478 31,000  Level FlightAware ADS-B
12:40PM 41.6538 -71.3409 237° Southwest 428 493 31,000  Level FlightAware ADS-B
12:40PM 41.6362 -71.3704 231° Southwest 433 498 31,000  Level FlightAware ADS-B (KBOS)
12:41PM 41.5989 -71.4277 229° Southwest 433 498 31,000  Level FlightAware ADS-B (KSNC)
12:41PM 41.5539 -71.4978 229° Southwest 428 493 31,000 -540 Level FlightAware ADS-B
12:42PM 41.5023 -71.5806 230° Southwest 430 495 30,400 -1,560 Descending FlightAware ADS-B
12:43PM 41.4599 -71.6473 230° Southwest 427 491 29,100 -2,460 Descending FlightAware ADS-B
12:43PM 41.4072 -71.7295 229° Southwest 424 488 27,400 -2,340 Descending FlightAware ADS-B (KSNC)
12:44PM 41.3867 -71.7601 228° Southwest 415 478 26,100 -2,100 Descending FlightAware ADS-B (KSNC)
12:44PM 41.3408 -71.8338 230° Southwest 401 461 24,900 -2,640 Descending FlightAware ADS-B (KSNC)
12:45PM 41.3058 -71.8859 228° Southwest 387 445 24,000 -1,500 Descending FlightAware ADS-B
12:45PM 41.2609 -71.9450 225° Southwest 388 447 23,800 -1,500 Descending FlightAware ADS-B (KSNC)
12:46PM 41.2017 -72.0116 220° Southwest 392 451 22,100 -1,980 Descending FlightAware ADS-B (KSNC)
12:47PM 41.1544 -72.0640 220° Southwest 377 434 21,000 -1,800 Descending FlightAware ADS-B (KSNC)
12:47PM 41.1424 -72.0770 219° Southwest 366 421 19,800 -1,980 Descending FlightAware ADS-B (KSNC)
12:48PM 41.0839 -72.1770 232° Southwest 355 409 19,100 -1,800 Descending FlightAware ADS-B
12:48PM 41.0689 -72.2445 254° West 347 399 18,000 -1,920 Descending FlightAware ADS-B (KSNC)
12:49PM 41.0510 -72.3222 253° West 343 395 16,600 -1,920 Descending FlightAware ADS-B (KSNC)
12:50PM 41.0151 -72.4598 251° West 339 390 14,800 -1,680 Descending FlightAware ADS-B (KSNC)
12:51PM 40.9959 -72.5370 252° West 331 381 13,800 -1,560 Descending FlightAware ADS-B (KSNC)
12:51PM 40.9766 -72.6200 253° West 322 371 12,600 -1,500 Descending FlightAware ADS-B (KSNC)
12:52PM 40.9560 -72.6917 249° West 315 362 11,800 -540 Descending FlightAware ADS-B (KSNC)
12:53PM 40.9390 -72.7633 253° West 277 319 11,900 60 Climbing FlightAware ADS-B (KSNC)
12:53PM 40.9298 -72.7925 248° West 271 312 11,900  Level FlightAware ADS-B (KSNC)
12:53PM 40.9136 -72.8168 228° Southwest 272 313 11,900  Level FlightAware ADS-B (KSNC)
12:54PM 40.8714 -72.8559 215° Southwest 273 314 11,900 -660 Level FlightAware ADS-B (KSNC)
12:55PM 40.8286 -72.8962 216° Southwest 273 314 11,000 -1,140 Descending FlightAware ADS-B (KSNC)
12:55PM 40.7961 -72.9279 216° Southwest 269 310 10,500 -1,080 Descending FlightAware ADS-B (KSNC)
12:56PM 40.7670 -72.9571 217° Southwest 266 306 9,900 -1,200 Descending FlightAware ADS-B (KSNC)
12:56PM 40.7469 -72.9763 216° Southwest 264 304 9,500 -1,500 Descending FlightAware ADS-B (KSNC)
12:56PM 40.7265 -72.9954 215° Southwest 267 307 8,900 -1,140 Descending FlightAware ADS-B (KSNC)
12:57PM 40.7092 -73.0118 216° Southwest 257 296 8,800 -240 Descending FlightAware ADS-B (KSNC)
12:57PM 40.6873 -73.0358 220° Southwest 223 257 8,700 -420 Descending FlightAware ADS-B (KSNC)
12:58PM 40.6600 -73.0685 222° Southwest 216 249 8,400 -1,140 Descending FlightAware ADS-B (KSNC)
12:58PM 40.6355 -73.0977 222° Southwest 217 250 7,700 -1,200 Descending FlightAware ADS-B (KSNC)
12:59PM 40.6333 -73.1003 222° Southwest 210 242 7,500 -840 Descending FlightAware ADS-B (KSNC)
01:03PM 40.7430 -73.3158 304° West 243 280 4,000 -720 Descending FlightAware ADS-B (KSNC)
01:04PM 40.7725 -73.3294 304° West 236 272 4,000  Level Boston Center
01:04PM 40.8167 -73.3667 327° Northwest 229 264 4,000  Level New York TRACON
01:05PM 40.8667 -73.4333 315° West 220 253 4,000 -420 Level New York TRACON
01:06PM 40.8667 -73.5000 270° West 202 232 3,200 -540 Descending New York TRACON
01:07PM 40.8333 -73.5500 229° Southwest 166 191 3,000 -180 Descending New York TRACON
01:08PM 40.8167 -73.6000 246° West 169 194 2,900 -480 Descending New York TRACON
01:09PM 40.7833 -73.6500 229° Southwest 165 190 2,100 -480 Descending New York TRACON
01:10PM 40.7500 -73.6667 201° Southwest 148 170 2,000 -240 Descending New York TRACON
01:11PM 40.7167 -73.7000 217° Southwest 136 157 1,700 -540 Descending New York TRACON
01:12PM 40.6833 -73.7167 201° Southwest 139 160 1,000 -780 Descending New York TRACON
01:13PM 40.6500 -73.7500 217° Southwest 143 165 200 -840 Descending New York TRACON